Time;durP1;ratioP1;P1;durP2;ratioP2;P2;SDS_P1;SDS_P2;PMS_P1;PMS_P2;Temp;Humidity;BMP_temperature;BMP_pressure;BME280_temperature;BME280_humidity;BME280_pressure;Samples;Min_cycle;Max_cycle;Signal;HPM_P1;HPM_P2
2022/09/11 00:01:24;;;;;;;9.48;6.30;;;;;;;15.03;100.00;99966.67;1473967;87;21655;-76
2022/09/11 00:03:50;;;;;;;11.70;6.67;;;;;;;15.03;100.00;99965.34;1463995;88;21581;-75
2022/09/11 00:06:21;;;;;;;9.23;7.03;;;;;;;15.01;100.00;99964.69;1480190;88;21451;-76
2022/09/11 00:08:49;;;;;;;10.72;5.60;;;;;;;15.02;100.00;99966.36;1436697;88;21648;-75
2022/09/11 00:11:19;;;;;;;7.27;5.63;;;;;;;15.00;100.00;99968.38;1447394;89;21455;-75
2022/09/11 00:13:50;;;;;;;8.40;6.83;;;;;;;15.00;100.00;99973.71;1450624;88;21353;-75
2022/09/11 00:16:25;;;;;;;10.20;8.37;;;;;;;14.97;100.00;99973.58;1474213;87;21449;-74
2022/09/11 00:18:55;;;;;;;11.07;6.37;;;;;;;14.92;100.00;99969.30;1471716;87;22116;-75
2022/09/11 00:21:21;;;;;;;11.10;6.53;;;;;;;14.88;100.00;99972.86;1467305;87;21522;-76
2022/09/11 00:23:48;;;;;;;6.93;6.00;;;;;;;14.85;100.00;99978.56;1468887;88;22580;-75
2022/09/11 00:26:19;;;;;;;11.03;7.60;;;;;;;14.86;100.00;99978.87;1477407;88;21545;-75
2022/09/11 00:28:46;;;;;;;15.08;6.72;;;;;;;14.89;100.00;99981.16;1475116;87;21515;-75
2022/09/11 00:31:17;;;;;;;31.43;7.77;;;;;;;14.95;100.00;99981.43;1471200;87;21627;-76
2022/09/11 00:33:43;;;;;;;12.88;7.67;;;;;;;14.99;100.00;99983.55;1483085;87;22336;-76
2022/09/11 00:36:16;;;;;;;15.17;7.53;;;;;;;15.01;100.00;99979.34;1468704;87;21449;-76
2022/09/11 00:38:44;;;;;;;9.27;7.10;;;;;;;15.06;100.00;99982.28;1473453;87;21612;-74
2022/09/11 00:41:18;;;;;;;12.30;7.77;;;;;;;15.12;100.00;99992.19;1473355;87;21471;-76
2022/09/11 00:44:02;;;;;;;10.90;7.27;;;;;;;15.16;100.00;99988.13;1468132;88;21448;-75
2022/09/11 00:46:40;;;;;;;13.40;7.43;;;;;;;15.20;100.00;99982.75;1461547;88;22461;-76
2022/09/11 00:49:23;;;;;;;11.37;6.50;;;;;;;15.24;100.00;99985.86;1449681;90;21715;-76
2022/09/11 00:51:56;;;;;;;12.27;7.10;;;;;;;15.29;100.00;99980.80;1430816;91;21718;-75
2022/09/11 00:54:31;;;;;;;11.70;7.40;;;;;;;15.34;100.00;99980.55;1446802;89;21559;-76
2022/09/11 00:57:01;;;;;;;10.23;7.53;;;;;;;15.39;100.00;99980.47;1449495;89;21626;-76
2022/09/11 00:59:29;;;;;;;;;;;;;;;15.42;100.00;99985.42;1453696;89;21662;-76
2022/09/11 01:01:56;;;;;;;9.30;7.47;;;;;;;15.42;100.00;99983.61;1457014;89;20291;-75
2022/09/11 01:04:23;;;;;;;8.40;7.13;;;;;;;15.41;100.00;99982.45;1454969;89;21485;-75
2022/09/11 01:06:55;;;;;;;11.00;8.13;;;;;;;15.39;100.00;99978.63;1459939;89;22439;-76
2022/09/11 01:09:26;;;;;;;8.80;6.60;;;;;;;15.39;100.00;99976.47;1464960;88;22373;-76
2022/09/11 01:12:08;;;;;;;9.90;7.47;;;;;;;15.39;100.00;99975.14;1480661;87;21529;-75
2022/09/11 01:15:03;;;;;;;10.03;7.10;;;;;;;15.40;100.00;99965.63;1475172;87;22261;-75
2022/09/11 01:17:47;;;;;;;8.23;6.73;;;;;;;15.42;100.00;99962.75;1469358;88;23455;-75
2022/09/11 01:20:35;;;;;;;7.73;6.60;;;;;;;15.47;100.00;99963.02;1466894;88;21464;-75
2022/09/11 01:23:45;;;;;;;7.97;7.13;;;;;;;15.47;100.00;99957.69;1462283;88;21477;-74
2022/09/11 01:26:31;;;;;;;11.23;7.00;;;;;;;15.48;100.00;99958.02;1469165;88;21566;-75
2022/09/11 01:29:12;;;;;;;8.60;6.67;;;;;;;15.50;100.00;99955.97;1476508;87;21514;-75
2022/09/11 01:31:52;;;;;;;7.13;6.50;;;;;;;15.51;100.00;99946.45;1459002;88;22301;-76
2022/09/11 01:34:43;;;;;;;7.40;6.60;;;;;;;15.50;100.00;99950.13;1455502;88;21425;-75
2022/09/11 01:37:20;;;;;;;8.15;6.97;;;;;;;15.52;100.00;99937.94;1472154;88;21662;-76
2022/09/11 01:39:51;;;;;;;8.07;6.87;;;;;;;15.55;100.00;99940.22;1460156;88;21595;-75
2022/09/11 01:42:21;;;;;;;10.17;7.43;;;;;;;15.55;100.00;99941.56;1481400;88;21670;-75
2022/09/11 01:44:56;;;;;;;7.83;6.58;;;;;;;15.53;100.00;99941.73;1473137;88;22476;-75
2022/09/11 01:47:23;;;;;;;11.60;8.03;;;;;;;15.51;100.00;99937.64;1493687;88;21484;-75
2022/09/11 01:50:06;;;;;;;10.03;7.17;;;;;;;15.45;100.00;99932.56;1459268;88;22402;-75
2022/09/11 01:52:37;;;;;;;9.13;7.03;;;;;;;15.42;100.00;99936.94;1457681;88;22594;-76
2022/09/11 01:55:12;;;;;;;8.10;7.30;;;;;;;15.37;100.00;99936.69;1459743;88;22542;-75
2022/09/11 01:57:49;;;;;;;8.27;7.40;;;;;;;15.27;100.00;99936.98;1490113;87;21499;-76
2022/09/11 02:00:16;;;;;;;9.20;6.93;;;;;;;15.17;100.00;99937.81;1473056;87;22524;-76
2022/09/11 02:02:51;;;;;;;12.23;7.37;;;;;;;15.08;100.00;99938.44;1461161;88;21501;-76
2022/09/11 02:05:24;;;;;;;9.33;6.73;;;;;;;15.04;100.00;99939.00;1468186;88;21651;-76
2022/09/11 02:08:07;;;;;;;9.97;6.70;;;;;;;15.00;100.00;99940.41;1472094;88;21559;-76
2022/09/11 02:10:48;;;;;;;10.17;7.37;;;;;;;14.96;100.00;99939.11;1467599;88;22025;-76
2022/09/11 02:13:37;;;;;;;7.00;6.30;;;;;;;14.94;100.00;99937.16;1484729;87;21521;-77
2022/09/11 02:16:21;;;;;;;7.80;6.97;;;;;;;14.89;100.00;99934.53;1471061;88;21485;-76
2022/09/11 02:19:04;;;;;;;7.97;7.07;;;;;;;14.83;100.00;99936.62;1462276;88;21507;-76
2022/09/11 02:21:32;;;;;;;7.70;6.60;;;;;;;14.79;100.00;99930.02;1468783;88;21559;-76
2022/09/11 02:24:00;;;;;;;8.50;7.60;;;;;;;14.77;100.00;99928.55;1458044;88;21539;-76
2022/09/11 02:26:30;;;;;;;7.03;6.33;;;;;;;14.73;100.00;99926.78;1470699;88;21478;-76
2022/09/11 02:28:56;;;;;;;8.85;8.05;;;;;;;14.70;100.00;99936.45;1461661;88;21403;-75
2022/09/11 02:31:23;;;;;;;6.63;6.00;;;;;;;14.64;100.00;99932.72;1475512;88;21442;-75
2022/09/11 02:33:50;;;;;;;9.23;5.97;;;;;;;14.62;100.00;99927.26;1477107;87;22379;-75
2022/09/11 02:37:02;;;;;;;7.13;6.43;;;;;;;14.57;100.00;99926.98;1479881;88;21404;-75
2022/09/11 02:39:43;;;;;;;6.80;5.83;;;;;;;14.51;100.00;99928.52;1478525;87;21544;-75
2022/09/11 02:42:55;;;;;;;9.63;8.05;;;;;;;14.47;100.00;99923.73;1473840;88;21633;-76
2022/09/11 02:45:59;;;;;;;6.37;5.77;;;;;;;14.48;100.00;99923.56;1467448;88;22542;-75
2022/09/11 02:49:05;;;;;;;9.50;6.77;;;;;;;14.49;100.00;99921.72;1481240;88;21433;-76
2022/09/11 02:51:55;;;;;;;6.90;6.20;;;;;;;14.46;100.00;99917.59;1457104;88;22408;-76
2022/09/11 02:54:32;;;;;;;8.50;6.93;;;;;;;14.42;100.00;99918.47;1465646;88;21522;-76
2022/09/11 02:57:18;;;;;;;7.47;6.23;;;;;;;14.40;100.00;99923.66;1459962;88;21485;-77
2022/09/11 03:00:00;;;;;;;9.87;6.90;;;;;;;14.35;100.00;99914.88;1466183;88;22326;-76
2022/09/11 03:02:29;;;;;;;18.70;7.30;;;;;;;14.30;100.00;99917.30;1460166;88;22386;-76
2022/09/11 03:04:56;;;;;;;7.90;7.10;;;;;;;14.26;100.00;99919.98;1467035;88;22314;-75
2022/09/11 03:07:28;;;;;;;6.93;5.90;;;;;;;14.23;100.00;99922.50;1469889;88;21595;-76
2022/09/11 03:09:52;;;;;;;16.40;6.20;;;;;;;14.21;100.00;99927.20;1467211;88;21508;-75
2022/09/11 03:12:19;;;;;;;9.70;5.87;;;;;;;14.19;100.00;99921.74;1469563;88;21462;-76
2022/09/11 03:14:45;;;;;;;7.97;6.73;;;;;;;14.19;100.00;99929.22;1470295;88;21559;-76
2022/09/11 03:17:12;;;;;;;11.80;7.20;;;;;;;14.18;100.00;99931.56;1458595;88;21470;-76
2022/09/11 03:19:38;;;;;;;6.17;5.63;;;;;;;14.19;100.00;99924.41;1466895;88;21432;-76
2022/09/11 03:22:04;;;;;;;6.37;5.77;;;;;;;14.18;100.00;99923.58;1487062;87;22286;-76
2022/09/11 03:24:30;;;;;;;11.90;6.27;;;;;;;14.17;100.00;99926.41;1477200;88;21484;-76
2022/09/11 03:26:56;;;;;;;7.53;6.80;;;;;;;14.16;100.00;99936.23;1483584;87;21478;-76
2022/09/11 03:29:22;;;;;;;6.13;5.50;;;;;;;14.16;100.00;99940.73;1478588;87;21404;-75
2022/09/11 03:31:48;;;;;;;6.70;6.00;;;;;;;14.15;100.00;99935.08;1484546;87;22247;-75
2022/09/11 03:34:16;;;;;;;7.63;6.80;;;;;;;14.14;100.00;99942.75;1477268;88;21427;-75
2022/09/11 03:36:43;;;;;;;8.00;6.40;;;;;;;14.14;100.00;99943.56;1477077;87;22365;-75
2022/09/11 03:39:09;;;;;;;19.67;6.63;;;;;;;14.14;100.00;99943.56;1488586;87;21477;-75
2022/09/11 03:41:35;;;;;;;30.67;8.90;;;;;;;14.16;100.00;99946.06;1456874;87;21397;-76
2022/09/11 03:44:01;;;;;;;52.73;7.73;;;;;;;14.17;100.00;99941.87;1465559;88;21412;-76
2022/09/11 03:46:27;;;;;;;19.67;6.83;;;;;;;14.17;100.00;99939.20;1479304;88;21462;-77
2022/09/11 03:48:53;;;;;;;31.17;7.47;;;;;;;14.18;100.00;99944.02;1492069;87;21462;-76
2022/09/11 03:51:20;;;;;;;21.73;6.53;;;;;;;14.20;100.00;99940.68;1458792;88;21440;-77
2022/09/11 03:53:47;;;;;;;24.03;6.53;;;;;;;14.22;100.00;99948.80;1470058;88;22232;-77
2022/09/11 03:56:13;;;;;;;10.83;6.77;;;;;;;14.24;100.00;99932.64;1475765;87;21500;-77
2022/09/11 03:58:40;;;;;;;9.03;6.37;;;;;;;14.28;100.00;99939.27;1462625;88;21507;-76
2022/09/11 04:01:12;;;;;;;17.53;6.47;;;;;;;14.30;100.00;99933.27;1458329;88;22461;-76
2022/09/11 04:03:39;;;;;;;23.77;5.43;;;;;;;14.30;100.00;99935.92;1458050;90;22276;-76
2022/09/11 04:06:07;;;;;;;12.27;5.27;;;;;;;14.31;100.00;99940.23;1457132;88;21412;-75
2022/09/11 04:08:33;;;;;;;11.53;5.97;;;;;;;14.30;100.00;99942.58;1451829;88;22226;-75
2022/09/11 04:11:05;;;;;;;27.77;5.97;;;;;;;14.31;100.00;99936.74;1464310;88;21389;-76
2022/09/11 04:13:35;;;;;;;40.13;6.77;;;;;;;14.31;100.00;99937.56;1481198;87;21530;-77
2022/09/11 04:16:09;;;;;;;58.73;6.78;;;;;;;14.31;100.00;99941.56;1462345;87;21495;-77
2022/09/11 04:18:38;;;;;;;28.20;6.57;;;;;;;14.30;100.00;99946.58;1453723;89;21539;-76
2022/09/11 04:21:08;;;;;;;47.20;6.20;;;;;;;14.28;100.00;99956.56;1455445;90;21458;-76
2022/09/11 04:23:34;;;;;;;48.83;6.45;;;;;;;14.22;100.00;99959.97;1450156;89;21450;-77
2022/09/11 04:26:01;;;;;;;30.27;5.27;;;;;;;14.20;100.00;99954.81;1454321;90;22236;-76
2022/09/11 04:28:29;;;;;;;14.13;5.73;;;;;;;14.20;100.00;99955.31;1455721;89;21626;-76
2022/09/11 04:30:56;;;;;;;21.00;6.37;;;;;;;14.17;100.00;99951.19;1452777;90;21627;-76
2022/09/11 04:33:23;;;;;;;11.83;5.90;;;;;;;14.16;100.00;99954.05;1454338;90;21612;-76
2022/09/11 04:35:50;;;;;;;19.80;5.77;;;;;;;14.15;100.00;99954.52;1456692;90;21427;-76
2022/09/11 04:38:17;;;;;;;20.77;5.73;;;;;;;14.12;100.00;99953.56;1455626;90;21449;-76
2022/09/11 04:40:44;;;;;;;13.10;5.33;;;;;;;14.14;100.00;99949.40;1449803;89;21463;-75
2022/09/11 04:43:10;;;;;;;19.30;5.27;;;;;;;14.17;100.00;99959.17;1456467;89;21523;-75
2022/09/11 04:45:39;;;;;;;61.50;6.97;;;;;;;14.22;100.00;99956.80;1450630;89;21406;-75
2022/09/11 04:48:05;;;;;;;18.00;5.30;;;;;;;14.29;100.00;99959.54;1459248;89;21523;-75
2022/09/11 04:50:31;;;;;;;26.77;5.97;;;;;;;14.32;100.00;99945.86;1450858;90;22261;-75
2022/09/11 04:52:57;;;;;;;25.93;6.27;;;;;;;14.34;100.00;99943.03;1454047;90;21493;-75
2022/09/11 04:55:25;;;;;;;12.47;5.77;;;;;;;14.35;100.00;99947.34;1450469;89;21457;-75
2022/09/11 04:57:52;;;;;;;8.00;6.07;;;;;;;14.38;100.00;99947.78;1455970;89;21463;-75
2022/09/11 05:00:20;;;;;;;7.50;6.20;;;;;;;14.44;100.00;99940.90;1456137;89;21648;-75
2022/09/11 05:02:46;;;;;;;11.00;6.23;;;;;;;14.52;100.00;99941.34;1463282;89;22498;-76
2022/09/11 05:05:12;;;;;;;6.07;5.47;;;;;;;14.57;100.00;99949.11;1470472;88;21426;-76
2022/09/11 05:07:38;;;;;;;6.57;5.93;;;;;;;14.62;100.00;99950.72;1478634;88;22490;-77
2022/09/11 05:10:06;;;;;;;7.87;5.97;;;;;;;14.67;100.00;99947.48;1486471;88;21499;-78
2022/09/11 05:12:32;;;;;;;7.50;6.80;;;;;;;14.73;100.00;99944.09;1478693;88;22627;-78
2022/09/11 05:14:58;;;;;;;8.67;6.50;;;;;;;14.82;100.00;99936.82;1482759;88;21477;-77
2022/09/11 05:17:24;;;;;;;12.77;7.70;;;;;;;14.85;100.00;99933.27;1462567;87;21433;-77
2022/09/11 05:19:50;;;;;;;8.47;7.57;;;;;;;14.95;100.00;99949.45;1459735;88;21426;-76
2022/09/11 05:22:16;;;;;;;8.03;7.13;;;;;;;15.00;100.00;99946.55;1481153;87;22490;-75
2022/09/11 05:24:42;;;;;;;7.77;6.83;;;;;;;15.05;100.00;99952.66;1485070;88;21419;-75
2022/09/11 05:27:08;;;;;;;8.57;7.43;;;;;;;15.13;100.00;99956.52;1474735;87;22489;-75
2022/09/11 05:29:35;;;;;;;14.73;7.73;;;;;;;15.19;100.00;99957.13;1458936;88;22410;-76
2022/09/11 05:32:02;;;;;;;10.17;8.07;;;;;;;15.23;100.00;99958.38;1460534;88;21402;-76
2022/09/11 05:34:28;;;;;;;11.80;7.83;;;;;;;15.30;100.00;99965.10;1470654;88;21524;-76
2022/09/11 05:37:01;;;;;;;11.30;8.03;;;;;;;15.28;100.00;99961.31;1461067;88;21398;-76
2022/09/11 05:39:27;;;;;;;12.03;9.07;;;;;;;15.29;100.00;99958.95;1467691;88;21397;-75
2022/09/11 05:41:58;;;;;;;14.40;10.10;;;;;;;15.31;100.00;99956.93;1455465;88;21508;-76
2022/09/11 05:44:21;;;;;;;17.53;10.50;;;;;;;15.33;100.00;99954.91;1453336;89;21465;-75
2022/09/11 05:46:47;;;;;;;17.67;12.40;;;;;;;15.40;100.00;99951.48;1464380;88;22337;-75
2022/09/11 05:49:14;;;;;;;15.93;10.83;;;;;;;15.46;100.00;99956.05;1467843;88;21529;-76
2022/09/11 05:51:41;;;;;;;20.33;11.30;;;;;;;15.53;100.00;99951.58;1463407;89;21532;-75
2022/09/11 05:54:07;;;;;;;16.03;11.23;;;;;;;15.54;100.00;99950.08;1461570;89;21501;-75
2022/09/11 05:56:33;;;;;;;15.87;11.37;;;;;;;15.59;100.00;99957.48;1467421;88;21419;-75
2022/09/11 05:59:01;;;;;;;15.50;11.97;;;;;;;15.63;100.00;99958.77;1459454;88;22459;-75
2022/09/11 06:01:29;;;;;;;15.13;12.10;;;;;;;15.68;100.00;99960.39;1464485;88;21471;-75
2022/09/11 06:03:56;;;;;;;14.47;11.93;;;;;;;15.78;100.00;99947.52;1481930;87;21411;-75
2022/09/11 06:06:23;;;;;;;21.03;13.37;;;;;;;15.88;100.00;99950.36;1490354;88;21426;-75
2022/09/11 06:08:51;;;;;;;18.00;12.63;;;;;;;15.95;100.00;99956.08;1483274;87;21411;-77
2022/09/11 06:11:19;;;;;;;17.73;14.13;;;;;;;16.01;100.00;99957.14;1482474;87;21411;-77
2022/09/11 06:13:47;;;;;;;17.90;15.90;;;;;;;16.02;100.00;99958.78;1481496;87;21589;-75
2022/09/11 06:16:17;;;;;;;16.03;14.43;;;;;;;16.02;100.00;99956.11;1485656;87;21634;-75
2022/09/11 06:18:47;;;;;;;14.68;13.13;;;;;;;16.04;100.00;99958.09;1486512;88;21506;-75
2022/09/11 06:21:17;;;;;;;17.97;11.60;;;;;;;16.02;100.00;99945.44;1475195;88;21606;-76
2022/09/11 06:23:41;;;;;;;13.97;12.53;;;;;;;16.11;100.00;99949.63;1480175;88;21617;-76
2022/09/11 06:26:11;;;;;;;13.97;11.20;;;;;;;16.21;100.00;99946.09;1474851;87;21991;-76
2022/09/11 06:28:39;;;;;;;10.68;9.48;;;;;;;16.30;100.00;99945.42;1460363;89;21804;-76
2022/09/11 06:31:09;;;;;;;11.63;9.40;;;;;;;16.42;100.00;99948.36;1459541;88;21731;-76
2022/09/11 06:33:38;;;;;;;12.28;10.58;;;;;;;16.47;100.00;99951.27;1457944;88;21492;-76
2022/09/11 06:36:09;;;;;;;13.07;11.70;;;;;;;16.51;100.00;99951.17;1460093;88;21500;-76
2022/09/11 06:38:37;;;;;;;12.13;10.90;;;;;;;16.50;100.00;99949.53;1463635;88;21559;-75
2022/09/11 06:41:06;;;;;;;14.40;10.47;;;;;;;16.45;100.00;99950.12;1465175;88;21471;-76
2022/09/11 06:43:33;;;;;;;10.97;9.17;;;;;;;16.54;100.00;99948.11;1479816;87;21564;-76
2022/09/11 06:46:11;;;;;;;11.23;9.90;;;;;;;16.54;100.00;99951.30;1469622;87;22285;-76
2022/09/11 06:48:36;;;;;;;12.97;10.17;;;;;;;16.62;100.00;99946.61;1457599;88;21728;-76
2022/09/11 06:51:12;;;;;;;18.47;11.03;;;;;;;16.73;100.00;99945.22;1465419;88;22351;-76
2022/09/11 06:53:40;;;;;;;13.83;11.53;;;;;;;16.80;100.00;99950.62;1484885;87;21507;-76
2022/09/11 06:56:13;;;;;;;10.63;9.60;;;;;;;16.81;99.59;99944.27;1493021;87;22402;-78
2022/09/11 06:58:40;;;;;;;10.73;9.73;;;;;;;16.82;99.51;99942.72;1485718;87;22461;-79
2022/09/11 07:01:13;;;;;;;12.10;10.77;;;;;;;16.75;98.61;99950.38;1478266;87;21441;-77
2022/09/11 07:03:49;;;;;;;11.60;8.57;;;;;;;16.75;98.80;99947.71;1476946;87;21441;-77
2022/09/11 07:06:19;;;;;;;9.47;7.63;;;;;;;16.84;99.16;99941.19;1487280;87;21626;-77
2022/09/11 07:08:59;;;;;;;9.03;8.13;;;;;;;16.99;99.23;99935.69;1460543;88;21412;-77
2022/09/11 07:11:22;;;;;;;9.10;7.80;;;;;;;17.14;99.25;99937.15;1463489;89;21582;-78
2022/09/11 07:13:48;;;;;;;7.00;6.30;;;;;;;17.29;98.26;99938.83;1460292;88;21944;-78
2022/09/11 07:16:15;;;;;;;8.57;7.67;;;;;;;17.19;94.75;99939.23;1445296;89;21471;-78
2022/09/11 07:18:45;;;;;;;12.00;7.55;;;;;;;17.12;95.32;99939.22;1458338;88;21477;-78
2022/09/11 07:21:15;;;;;;;9.75;6.78;;;;;;;17.19;96.75;99938.41;1458440;89;21402;-78
2022/09/11 07:23:44;;;;;;;;;;;;;;;17.32;96.38;99941.09;1459443;88;21434;-78
2022/09/11 07:26:12;;;;;;;9.25;5.22;;;;;;;17.46;96.63;99940.08;1454278;89;20269;-78
2022/09/11 07:28:39;;;;;;;7.92;6.83;;;;;;;17.60;93.15;99945.75;1457441;88;21397;-78
2022/09/11 07:31:12;;;;;;;8.53;6.80;;;;;;;17.59;92.88;99945.45;1463838;88;21442;-78
2022/09/11 07:33:44;;;;;;;8.08;6.50;;;;;;;17.52;92.42;99944.64;1480502;86;22380;-79
2022/09/11 07:36:15;;;;;;;7.55;6.10;;;;;;;17.47;92.85;99948.44;1499233;86;22557;-78
2022/09/11 07:38:44;;;;;;;8.08;6.70;;;;;;;17.58;92.66;99945.16;1497448;86;21499;-78
2022/09/11 07:41:12;;;;;;;6.87;6.20;;;;;;;17.83;93.91;99951.25;1492916;86;21515;-79
2022/09/11 07:43:40;;;;;;;7.12;5.78;;;;;;;18.03;93.39;99953.91;1481260;87;21545;-78
2022/09/11 07:46:09;;;;;;;8.45;7.03;;;;;;;18.24;93.03;99950.16;1460781;88;22396;-78
2022/09/11 07:48:36;;;;;;;7.37;6.17;;;;;;;18.49;91.61;99951.12;1469906;88;21492;-77
2022/09/11 07:51:05;;;;;;;9.68;6.60;;;;;;;18.64;90.36;99950.05;1484224;87;21544;-78
2022/09/11 07:53:39;;;;;;;7.17;5.12;;;;;;;18.61;89.69;99950.48;1481209;87;21604;-77
2022/09/11 07:56:13;;;;;;;4.62;4.10;;;;;;;18.61;89.73;99957.17;1453275;86;21359;-77
2022/09/11 07:58:41;;;;;;;7.25;4.20;;;;;;;18.75;89.04;99954.78;1453826;89;21581;-76
2022/09/11 08:01:12;;;;;;;7.95;3.85;;;;;;;18.86;88.23;99951.44;1462201;88;22424;-77
2022/09/11 08:03:38;;;;;;;;;;;;;;;18.91;87.03;99956.99;1461815;89;22271;-77
2022/09/11 08:06:09;;;;;;;5.40;4.53;;;;;;;18.89;85.67;99951.02;1464328;88;20283;-80
2022/09/11 08:08:36;;;;;;;6.08;3.55;;;;;;;19.09;85.20;99950.09;1458724;89;22334;-85
2022/09/11 08:11:10;;;;;;;8.73;4.45;;;;;;;19.22;84.15;99949.18;1459926;88;21567;-86
2022/09/11 08:13:36;;;;;;;5.47;3.05;;;;;;;19.20;82.85;99953.96;1458636;88;22589;-84
2022/09/11 08:16:03;;;;;;;4.00;2.85;;;;;;;19.16;82.94;99957.08;1462186;88;21627;-84
2022/09/11 08:18:30;;;;;;;5.33;3.15;;;;;;;19.11;79.47;99954.21;1463714;89;21494;-84
2022/09/11 08:21:07;;;;;;;5.92;2.15;;;;;;;19.36;81.30;99951.59;1450552;89;21946;-82
2022/09/11 08:23:41;;;;;;;2.90;2.70;;;;;;;19.45;77.74;99950.81;1464257;88;21443;-86
2022/09/11 08:26:12;;;;;;;8.13;2.62;;;;;;;19.55;79.12;99956.50;1538381;88;21513;-82
2022/09/11 08:28:41;;;;;;;9.13;3.40;;;;;;;19.62;77.87;99951.07;1386657;89;22273;-83
2022/09/11 08:31:07;;;;;;;2.92;2.70;;;;;;;19.68;77.77;99954.28;1383362;88;21546;-83
2022/09/11 08:33:34;;;;;;;3.50;2.75;;;;;;;19.75;75.85;99946.16;1392075;88;22533;-83
2022/09/11 08:36:03;;;;;;;4.37;2.67;;;;;;;19.86;74.95;99947.33;1439172;89;21516;-85
2022/09/11 08:38:32;;;;;;;3.12;2.83;;;;;;;19.86;74.95;99947.33;1460209;88;21650;-83
2022/09/11 08:41:20;;;;;;;4.72;2.05;;;;;;;19.74;73.02;99949.91;1498410;88;21457;-85
2022/09/11 08:43:52;;;;;;;7.53;2.33;;;;;;;19.68;74.03;99953.44;1482378;87;21575;-84
2022/09/11 08:46:22;;;;;;;6.12;2.62;;;;;;;19.47;72.23;99948.71;1455474;89;21707;-84
2022/09/11 08:49:02;;;;;;;6.85;2.27;;;;;;;19.57;74.38;99944.22;1460897;88;22699;-85
2022/09/11 08:51:30;;;;;;;8.88;2.50;;;;;;;19.82;75.61;99945.08;1461227;89;21480;-84
2022/09/11 08:53:58;;;;;;;8.13;2.62;;;;;;;20.09;71.94;99940.80;1384547;88;21346;-84
2022/09/11 08:56:33;;;;;;;18.98;3.00;;;;;;;20.14;70.26;99936.94;1384915;88;21429;-84
2022/09/11 08:59:16;;;;;;;9.60;2.35;;;;;;;20.24;71.35;99942.59;1446681;89;21760;-84
2022/09/11 09:01:57;;;;;;;3.40;2.17;;;;;;;20.41;70.28;99943.36;1463832;88;21509;-84
2022/09/11 09:04:31;;;;;;;13.22;2.58;;;;;;;20.66;70.89;99937.41;1459940;88;22618;-84
2022/09/11 09:07:38;;;;;;;4.22;2.75;;;;;;;20.83;69.01;99941.66;1454668;89;21620;-84
2022/09/11 09:10:53;;;;;;;3.27;2.67;;;;;;;20.67;67.99;99943.08;1438191;89;22388;-84
2022/09/11 09:13:43;;;;;;;7.62;3.42;;;;;;;20.69;69.41;99939.65;1389939;93;22426;-83
2022/09/11 09:16:18;;;;;;;;;;;;;;;20.85;68.09;99942.75;1397459;93;22455;-83
2022/09/11 09:18:54;;;;;;;5.22;1.40;;;;;;;21.02;68.39;99939.73;1447549;88;20296;-85
2022/09/11 09:21:31;;;;;;;3.65;1.85;;;;;;;21.09;67.07;99936.44;1467476;88;21355;-83
2022/09/11 09:24:02;;;;;;;6.05;1.67;;;;;;;21.23;65.66;99946.47;1467045;88;21524;-83
2022/09/11 09:26:38;;;;;;;6.83;1.57;;;;;;;21.37;66.39;99937.17;1467880;88;21355;-83
2022/09/11 09:29:16;;;;;;;7.37;1.70;;;;;;;21.42;65.45;99940.53;1466215;88;21887;-82
2022/09/11 09:31:45;;;;;;;3.58;1.12;;;;;;;21.53;65.54;99951.86;1547091;88;21318;-82
2022/09/11 09:34:21;;;;;;;8.45;1.30;;;;;;;21.33;63.82;99939.20;1388809;88;21326;-83
2022/09/11 09:37:14;;;;;;;6.03;0.95;;;;;;;21.34;63.97;99946.22;1544458;88;21267;-82
2022/09/11 09:39:44;;;;;;;5.47;1.05;;;;;;;21.42;62.51;99944.58;1454801;88;21385;-83
2022/09/11 09:42:39;;;;;;;6.70;0.98;;;;;;;21.32;61.19;99941.58;1386491;89;21492;-82
2022/09/11 09:45:36;;;;;;;2.40;0.80;;;;;;;21.33;61.82;99941.36;1538303;89;22300;-83
2022/09/11 09:48:03;;;;;;;1.50;0.98;;;;;;;21.21;62.14;99937.82;1420896;89;21385;-82
2022/09/11 09:50:36;;;;;;;1.87;0.88;;;;;;;20.96;61.57;99937.95;1380692;89;22301;-82
2022/09/11 09:53:29;;;;;;;4.47;1.10;;;;;;;20.78;63.13;99942.03;1558784;88;21311;-82
2022/09/11 09:55:59;;;;;;;7.60;1.02;;;;;;;20.62;62.71;99942.92;1403333;88;21429;-82
2022/09/11 09:58:33;;;;;;;4.92;1.30;;;;;;;20.73;62.37;99938.67;1396636;88;22258;-82
2022/09/11 10:00:59;;;;;;;1.90;1.25;;;;;;;20.94;63.56;99936.01;1391893;88;21304;-83
2022/09/11 10:03:26;;;;;;;3.08;0.93;;;;;;;21.16;63.68;99931.77;1424146;91;21445;-82
2022/09/11 10:05:54;;;;;;;1.98;0.98;;;;;;;21.37;61.64;99930.98;1380108;88;21376;-83
2022/09/11 10:08:36;;;;;;;7.10;1.32;;;;;;;21.65;62.30;99938.41;1442544;88;22336;-83
2022/09/11 10:11:09;;;;;;;1.27;0.98;;;;;;;21.74;60.71;99941.05;1450048;88;21463;-83
2022/09/11 10:13:41;;;;;;;10.03;1.52;;;;;;;21.94;60.91;99942.59;1451600;88;22469;-83
2022/09/11 10:16:24;;;;;;;6.97;1.07;;;;;;;21.90;59.94;99946.83;1531717;88;21531;-82
2022/09/11 10:18:52;;;;;;;15.25;1.05;;;;;;;21.72;60.47;99944.52;1507492;88;22054;-83
2022/09/11 10:21:24;;;;;;;5.03;0.78;;;;;;;21.70;62.01;99941.77;1385066;89;21345;-84
2022/09/11 10:24:03;;;;;;;3.37;1.00;;;;;;;21.59;59.73;99939.34;1536247;87;21304;-84
2022/09/11 10:26:42;;;;;;;8.40;0.98;;;;;;;21.37;59.74;99935.02;1377930;88;21455;-84
2022/09/11 10:29:19;;;;;;;5.20;1.47;;;;;;;21.25;60.48;99934.95;1525715;88;21412;-85
2022/09/11 10:31:55;;;;;;;1.50;0.68;;;;;;;21.17;59.49;99933.40;1454312;88;21612;-85
2022/09/11 10:34:25;;;;;;;5.72;1.00;;;;;;;21.42;59.71;99933.80;1460844;87;21537;-86
2022/09/11 10:37:02;;;;;;;2.17;0.75;;;;;;;21.38;58.98;99926.73;1473420;87;21515;-84
2022/09/11 10:39:32;;;;;;;1.40;1.07;;;;;;;21.23;60.09;99926.81;1457487;87;22419;-82
2022/09/11 10:42:04;;;;;;;3.65;0.78;;;;;;;21.18;59.73;99928.34;1450767;89;21655;-83
2022/09/11 10:44:30;;;;;;;3.45;1.05;;;;;;;21.15;61.10;99929.33;1455748;88;21647;-86
2022/09/11 10:47:14;;;;;;;5.00;1.10;;;;;;;21.39;60.58;99929.70;1461836;88;21525;-85
2022/09/11 10:49:41;;;;;;;3.80;0.70;;;;;;;21.63;58.63;99924.35;1467472;88;21611;-83
2022/09/11 10:52:12;;;;;;;1.12;1.00;;;;;;;21.75;59.34;99918.97;1458949;88;21508;-85
2022/09/11 10:55:04;;;;;;;4.62;0.85;;;;;;;21.93;59.06;99920.23;1454201;88;22426;-82
2022/09/11 10:57:47;;;;;;;0.65;0.60;;;;;;;22.18;58.72;99916.48;1453771;89;22676;-84
2022/09/11 11:00:26;;;;;;;3.80;0.85;;;;;;;22.32;57.84;99912.47;1463072;88;22476;-85
2022/09/11 11:03:25;;;;;;;1.98;0.82;;;;;;;22.26;57.22;99910.73;1451631;89;21515;-84
2022/09/11 11:06:31;;;;;;;5.75;0.88;;;;;;;22.38;57.28;99904.78;1455561;88;21406;-84
2022/09/11 11:09:15;;;;;;;4.95;0.85;;;;;;;22.58;55.79;99899.52;1451809;89;21616;-83
2022/09/11 11:12:05;;;;;;;4.53;0.65;;;;;;;22.74;55.53;99896.08;1452408;89;21609;-85
2022/09/11 11:14:56;;;;;;;;;;;;;;;22.94;54.52;99900.50;1454855;90;21724;-84
2022/09/11 11:17:53;;;;;;;2.70;1.17;;;;;;;23.14;53.16;99893.87;1452871;88;20433;-87
2022/09/11 11:20:46;;;;;;;7.37;1.10;;;;;;;23.21;53.05;99894.52;1463047;88;22456;-84
2022/09/11 11:23:41;;;;;;;1.30;0.60;;;;;;;23.06;53.24;99896.42;1425131;90;21510;-84
2022/09/11 11:26:50;;;;;;;2.77;0.50;;;;;;;22.75;50.47;99892.30;1417179;92;22283;-84
2022/09/11 11:29:41;;;;;;;2.05;0.85;;;;;;;22.55;52.54;99892.72;1422644;90;21598;-82
2022/09/11 11:32:31;;;;;;;2.00;0.80;;;;;;;22.46;54.37;99877.98;1407677;93;22049;-82
2022/09/11 11:35:17;;;;;;;14.17;1.00;;;;;;;22.79;54.98;99871.91;1443129;90;22469;-85
2022/09/11 11:37:47;;;;;;;3.52;0.80;;;;;;;22.94;53.00;99872.17;1444193;90;21456;-85
2022/09/11 11:40:37;;;;;;;1.17;0.78;;;;;;;22.70;53.24;99870.12;1444283;90;21493;-85
2022/09/11 11:43:09;;;;;;;4.55;0.85;;;;;;;22.65;53.57;99866.50;1446665;90;22027;-84
2022/09/11 11:45:46;;;;;;;2.30;0.62;;;;;;;22.71;51.35;99858.80;1424346;90;21517;-84
2022/09/11 11:48:17;;;;;;;2.60;0.80;;;;;;;22.82;51.14;99853.06;1440715;90;21739;-84
2022/09/11 11:50:48;;;;;;;1.82;0.62;;;;;;;22.85;51.60;99851.23;1437885;90;22403;-82
2022/09/11 11:53:37;;;;;;;1.02;0.80;;;;;;;23.07;51.64;99850.01;1417722;90;21652;-83
2022/09/11 11:56:17;;;;;;;3.65;0.70;;;;;;;23.22;50.55;99851.64;1439698;90;21508;-83